Time;durP1;ratioP1;P1;durP2;ratioP2;P2;SDS_P1;SDS_P2;PMS_P1;PMS_P2;Temp;Humidity;BMP_temperature;BMP_pressure;BME280_temperature;BME280_humidity;BME280_pressure;Samples;Min_cycle;Max_cycle;Signal;HPM_P1;HPM_P2
2021/06/09 00:01:29;;;;;;;7.07;2.80;;;;;;;;;;5088690;28;20384;-70
2021/06/09 00:03:54;;;;;;;5.67;2.90;;;;;;;;;;5089118;28;20397;-70
2021/06/09 00:06:20;;;;;;;6.13;2.80;;;;;;;;;;5096119;28;20066;-70
2021/06/09 00:08:45;;;;;;;7.93;2.63;;;;;;;;;;5092133;28;20020;-70
2021/06/09 00:11:11;;;;;;;8.87;3.37;;;;;;;;;;5096451;28;20459;-70
2021/06/09 00:13:37;;;;;;;5.40;2.63;;;;;;;;;;5089745;28;20089;-70
2021/06/09 00:16:13;;;;;;;6.63;2.73;;;;;;;;;;5091726;28;20031;-70
2021/06/09 00:18:39;;;;;;;5.00;2.60;;;;;;;;;;5091965;28;20016;-70
2021/06/09 00:21:04;;;;;;;10.97;2.97;;;;;;;;;;5090414;28;20027;-70
2021/06/09 00:23:30;;;;;;;5.33;3.00;;;;;;;;;;5093464;28;20020;-70
2021/06/09 00:25:57;;;;;;;5.43;2.70;;;;;;;;;;5090434;28;20024;-70
2021/06/09 00:28:23;;;;;;;6.47;2.77;;;;;;;;;;5085330;28;20335;-70
2021/06/09 00:30:48;;;;;;;5.10;2.60;;;;;;;;;;5092025;28;20027;-70
2021/06/09 00:33:14;;;;;;;5.83;2.50;;;;;;;;;;5090907;28;20069;-70
2021/06/09 00:35:39;;;;;;;5.73;2.60;;;;;;;;;;5092885;28;20055;-70
2021/06/09 00:38:05;;;;;;;6.27;2.80;;;;;;;;;;5089851;28;20028;-70
2021/06/09 00:40:31;;;;;;;7.33;2.70;;;;;;;;;;5091215;28;20031;-70
2021/06/09 00:43:23;;;;;;;5.10;2.73;;;;;;;;;;5091754;28;20103;-70
2021/06/09 00:45:58;;;;;;;4.88;2.60;;;;;;;;;;5087202;28;20032;-70
2021/06/09 00:48:26;;;;;;;5.60;2.53;;;;;;;;;;5085539;28;20030;-70
2021/06/09 00:50:53;;;;;;;7.10;2.60;;;;;;;;;;5092496;28;20036;-70
2021/06/09 00:53:28;;;;;;;4.73;2.50;;;;;;;;;;5091859;28;20076;-70
2021/06/09 00:55:54;;;;;;;6.63;2.90;;;;;;;;;;5089615;28;20035;-70
2021/06/09 00:58:20;;;;;;;4.73;2.70;;;;;;;;;;5091374;28;20465;-70
2021/06/09 01:00:46;;;;;;;5.77;2.90;;;;;;;;;;5090211;28;20372;-68
2021/06/09 01:03:11;;;;;;;6.47;2.57;;;;;;;;;;5099824;22;20050;-66
2021/06/09 01:05:36;;;;;;;5.87;2.90;;;;;;;;;;5084747;28;20024;-66
2021/06/09 01:08:03;;;;;;;6.23;2.80;;;;;;;;;;5090165;28;20028;-66
2021/06/09 01:10:28;;;;;;;7.37;2.70;;;;;;;;;;5079794;28;20017;-66
2021/06/09 01:12:55;;;;;;;6.17;3.23;;;;;;;;;;5090836;28;20061;-66
2021/06/09 01:15:21;;;;;;;7.97;3.50;;;;;;;;;;5092982;28;20027;-66
2021/06/09 01:17:46;;;;;;;6.50;2.80;;;;;;;;;;5084995;28;20422;-66
2021/06/09 01:20:11;;;;;;;5.87;2.90;;;;;;;;;;5094215;28;20020;-66
2021/06/09 01:22:37;;;;;;;5.93;3.07;;;;;;;;;;5088795;28;20024;-66
2021/06/09 01:25:04;;;;;;;7.43;3.10;;;;;;;;;;5092473;28;20089;-66
2021/06/09 01:27:30;;;;;;;5.97;3.13;;;;;;;;;;5092989;28;20345;-65
2021/06/09 01:29:55;;;;;;;7.97;3.43;;;;;;;;;;5095847;28;20081;-65
2021/06/09 01:32:21;;;;;;;7.57;3.43;;;;;;;;;;5091239;28;20107;-66
2021/06/09 01:34:46;;;;;;;6.33;3.10;;;;;;;;;;5092920;28;20130;-66
2021/06/09 01:37:11;;;;;;;7.90;3.73;;;;;;;;;;5087102;28;20027;-66
2021/06/09 01:39:37;;;;;;;9.87;3.17;;;;;;;;;;5088159;28;20031;-66
2021/06/09 01:42:02;;;;;;;8.27;3.23;;;;;;;;;;5090776;28;20028;-66
2021/06/09 01:44:28;;;;;;;7.43;3.20;;;;;;;;;;5090065;28;20031;-66
2021/06/09 01:46:53;;;;;;;6.50;2.90;;;;;;;;;;5083734;28;20648;-65
2021/06/09 01:49:19;;;;;;;6.87;3.47;;;;;;;;;;5087917;28;20060;-66
2021/06/09 01:51:44;;;;;;;9.03;3.07;;;;;;;;;;5091065;28;20024;-66
2021/06/09 01:54:10;;;;;;;9.10;3.30;;;;;;;;;;5091342;28;20020;-65
2021/06/09 01:56:35;;;;;;;7.37;3.30;;;;;;;;;;5083633;28;20039;-66
2021/06/09 01:59:11;;;;;;;9.10;3.23;;;;;;;;;;5090871;28;20379;-66
2021/06/09 02:01:36;;;;;;;9.87;3.67;;;;;;;;;;5084764;28;20020;-66
2021/06/09 02:04:02;;;;;;;5.90;2.97;;;;;;;;;;5087928;28;20093;-66
2021/06/09 02:06:27;;;;;;;6.70;3.03;;;;;;;;;;5092807;28;20024;-66
2021/06/09 02:08:53;;;;;;;6.00;3.23;;;;;;;;;;5082806;28;20111;-66
2021/06/09 02:11:18;;;;;;;6.37;3.40;;;;;;;;;;5088187;28;20031;-66
2021/06/09 02:13:44;;;;;;;8.10;3.70;;;;;;;;;;5089993;28;20043;-66
2021/06/09 02:16:09;;;;;;;8.00;3.30;;;;;;;;;;5093407;28;20131;-66
2021/06/09 02:18:34;;;;;;;8.40;3.27;;;;;;;;;;5093632;28;20030;-66
2021/06/09 02:21:00;;;;;;;7.47;3.47;;;;;;;;;;5096517;28;20257;-66
2021/06/09 02:23:27;;;;;;;7.50;3.93;;;;;;;;;;5083363;28;20411;-66
2021/06/09 02:25:54;;;;;;;7.33;3.50;;;;;;;;;;5095092;28;20016;-66
2021/06/09 02:28:20;;;;;;;7.30;3.50;;;;;;;;;;5090645;28;20448;-66
2021/06/09 02:30:46;;;;;;;6.73;3.37;;;;;;;;;;5085983;28;20073;-66
2021/06/09 02:33:12;;;;;;;7.93;3.27;;;;;;;;;;5091887;28;20028;-66
2021/06/09 02:35:38;;;;;;;7.03;3.70;;;;;;;;;;5089451;28;20024;-66
2021/06/09 02:38:05;;;;;;;6.63;3.33;;;;;;;;;;5090977;28;20024;-66
2021/06/09 02:40:30;;;;;;;9.23;3.37;;;;;;;;;;5084990;28;20387;-66
2021/06/09 02:42:55;;;;;;;8.17;3.50;;;;;;;;;;5095718;28;20024;-66
2021/06/09 02:45:21;;;;;;;11.27;4.23;;;;;;;;;;5091416;28;20035;-66
2021/06/09 02:47:53;;;;;;;9.07;2.93;;;;;;;;;;5084644;28;20522;-66
2021/06/09 02:50:19;;;;;;;6.45;3.40;;;;;;;;;;5093341;28;20106;-66
2021/06/09 02:53:07;;;;;;;5.93;2.90;;;;;;;;;;5087678;28;20025;-66
2021/06/09 02:56:02;;;;;;;9.77;3.30;;;;;;;;;;5086068;28;20094;-66
2021/06/09 02:58:46;;;;;;;7.40;3.70;;;;;;;;;;5034267;28;20045;-66
2021/06/09 03:01:28;;;;;;;7.50;3.27;;;;;;;;;;5095258;28;20024;-66
2021/06/09 03:04:23;;;;;;;7.57;3.63;;;;;;;;;;5091412;28;20052;-66
2021/06/09 03:06:55;;;;;;;10.17;3.27;;;;;;;;;;5071391;28;20047;-66
2021/06/09 03:09:23;;;;;;;;;;;;;;;;;;5093658;28;20111;-66
2021/06/09 03:12:11;;;;;;;6.57;3.27;;;;;;;;;;5091274;28;19916;-66
2021/06/09 03:17:33;;;;;;;9.13;3.57;;;;;;;;;;5033420;28;20084;-66
2021/06/09 03:20:06;;;;;;;11.00;3.70;;;;;;;;;;5032062;28;20068;-66
2021/06/09 03:22:57;;;;;;;8.47;3.70;;;;;;;;;;5032098;28;20020;-66
2021/06/09 03:25:26;;;;;;;8.80;3.53;;;;;;;;;;4973089;28;20063;-66
2021/06/09 03:27:55;;;;;;;15.47;3.80;;;;;;;;;;4973161;28;20033;-66
2021/06/09 03:30:24;;;;;;;9.07;3.20;;;;;;;;;;4972749;28;20131;-66
2021/06/09 03:33:06;;;;;;;7.43;3.33;;;;;;;;;;4969260;28;20139;-66
2021/06/09 03:36:04;;;;;;;6.38;3.30;;;;;;;;;;4973510;28;20030;-66
2021/06/09 03:38:34;;;;;;;7.33;3.63;;;;;;;;;;4906944;29;20235;-66
2021/06/09 03:41:04;;;;;;;9.93;4.10;;;;;;;;;;4905728;29;20162;-65
2021/06/09 03:43:31;;;;;;;6.97;3.83;;;;;;;;;;4913307;29;20056;-65
2021/06/09 03:45:57;;;;;;;7.07;3.60;;;;;;;;;;4911930;29;20017;-65
2021/06/09 03:48:25;;;;;;;8.60;3.60;;;;;;;;;;4910734;29;20043;-66
2021/06/09 03:50:52;;;;;;;9.77;3.37;;;;;;;;;;4945623;29;20038;-66
2021/06/09 03:53:18;;;;;;;7.83;3.80;;;;;;;;;;4950493;29;20030;-66
2021/06/09 03:55:44;;;;;;;8.57;3.60;;;;;;;;;;4953075;29;20400;-66
2021/06/09 03:58:11;;;;;;;11.20;3.50;;;;;;;;;;4949175;29;20140;-66
2021/06/09 04:00:37;;;;;;;6.50;3.40;;;;;;;;;;4952085;28;20110;-66
2021/06/09 04:03:03;;;;;;;10.17;3.50;;;;;;;;;;4998071;28;20648;-66
2021/06/09 04:05:30;;;;;;;7.13;3.60;;;;;;;;;;4996279;28;20133;-66
2021/06/09 04:07:57;;;;;;;7.07;3.23;;;;;;;;;;5009043;28;20038;-66
2021/06/09 04:10:23;;;;;;;6.67;3.57;;;;;;;;;;5010821;28;20101;-66
2021/06/09 04:12:48;;;;;;;6.10;3.13;;;;;;;;;;5009492;28;20096;-66
2021/06/09 04:15:14;;;;;;;6.60;3.43;;;;;;;;;;5092716;28;20066;-66
2021/06/09 04:17:42;;;;;;;9.10;3.70;;;;;;;;;;5095691;28;20065;-66
2021/06/09 04:20:08;;;;;;;7.03;3.60;;;;;;;;;;5093347;28;20439;-66
2021/06/09 04:22:34;;;;;;;8.87;3.70;;;;;;;;;;5098529;28;20016;-66
2021/06/09 04:25:00;;;;;;;9.23;3.73;;;;;;;;;;5095906;28;20024;-66
2021/06/09 04:27:27;;;;;;;9.53;3.70;;;;;;;;;;5086500;28;20021;-66
2021/06/09 04:29:54;;;;;;;7.77;3.90;;;;;;;;;;5103656;28;20069;-66
2021/06/09 04:32:19;;;;;;;7.53;3.33;;;;;;;;;;5089056;28;20016;-65
2021/06/09 04:34:49;;;;;;;8.90;3.70;;;;;;;;;;5103677;28;20024;-66
2021/06/09 04:37:16;;;;;;;7.80;3.60;;;;;;;;;;5092383;28;20028;-66
2021/06/09 04:39:42;;;;;;;6.87;3.33;;;;;;;;;;5105467;28;20031;-65
2021/06/09 04:42:08;;;;;;;8.40;3.87;;;;;;;;;;5082366;28;20372;-66
2021/06/09 04:44:34;;;;;;;7.73;3.80;;;;;;;;;;5090284;28;20023;-66
2021/06/09 04:47:00;;;;;;;10.20;4.03;;;;;;;;;;5093567;28;20443;-66
2021/06/09 04:49:29;;;;;;;7.67;3.93;;;;;;;;;;5093695;28;20028;-66
2021/06/09 04:51:54;;;;;;;5.87;3.20;;;;;;;;;;5102273;28;20047;-66
2021/06/09 04:54:20;;;;;;;7.27;3.70;;;;;;;;;;5099432;28;20591;-66
2021/06/09 04:56:45;;;;;;;8.40;3.53;;;;;;;;;;5090332;28;20099;-66
2021/06/09 04:59:10;;;;;;;9.07;3.43;;;;;;;;;;5097813;28;20023;-66
2021/06/09 05:01:37;;;;;;;8.33;3.40;;;;;;;;;;5095198;28;20024;-66
2021/06/09 05:04:02;;;;;;;6.67;3.50;;;;;;;;;;5093198;28;20121;-66
2021/06/09 05:06:27;;;;;;;8.57;3.50;;;;;;;;;;5093084;28;20039;-66
2021/06/09 05:08:53;;;;;;;7.27;3.60;;;;;;;;;;5097567;28;20376;-66
2021/06/09 05:11:21;;;;;;;5.87;3.30;;;;;;;;;;5092230;28;20069;-66
2021/06/09 05:13:48;;;;;;;6.60;3.40;;;;;;;;;;5086297;28;20024;-66
2021/06/09 05:16:15;;;;;;;8.07;3.73;;;;;;;;;;5078978;28;20653;-66
2021/06/09 05:18:46;;;;;;;9.10;3.47;;;;;;;;;;5099705;28;20035;-66
2021/06/09 05:21:12;;;;;;;7.90;3.83;;;;;;;;;;5084978;28;20028;-66
2021/06/09 05:23:39;;;;;;;7.27;3.60;;;;;;;;;;5093414;28;20028;-66
2021/06/09 05:26:06;;;;;;;6.30;3.17;;;;;;;;;;5096279;28;20395;-66
2021/06/09 05:28:37;;;;;;;5.27;2.97;;;;;;;;;;5090629;28;20039;-66
2021/06/09 05:31:03;;;;;;;5.28;2.97;;;;;;;;;;5093152;28;20028;-66
2021/06/09 05:33:29;;;;;;;8.03;3.50;;;;;;;;;;5090881;28;20034;-66
2021/06/09 05:35:55;;;;;;;7.83;3.10;;;;;;;;;;5089636;28;20023;-66
2021/06/09 05:38:21;;;;;;;10.37;3.40;;;;;;;;;;5091052;28;20042;-66
2021/06/09 05:40:47;;;;;;;6.53;3.20;;;;;;;;;;5101867;28;20090;-66
2021/06/09 05:43:12;;;;;;;6.43;3.20;;;;;;;;;;5091127;28;20102;-66
2021/06/09 05:45:39;;;;;;;6.30;3.10;;;;;;;;;;5090974;28;20533;-67
2021/06/09 05:48:04;;;;;;;5.32;2.80;;;;;;;;;;5082773;28;20103;-70
2021/06/09 05:50:30;;;;;;;5.95;2.70;;;;;;;;;;5102607;28;20154;-69
2021/06/09 05:52:57;;;;;;;5.20;2.40;;;;;;;;;;5095171;28;20024;-69
2021/06/09 05:55:24;;;;;;;5.93;2.97;;;;;;;;;;5095271;28;20089;-71
2021/06/09 05:57:50;;;;;;;6.00;2.65;;;;;;;;;;5101155;28;20475;-72
2021/06/09 06:00:17;;;;;;;5.70;2.55;;;;;;;;;;5092887;28;20449;-72
2021/06/09 06:02:42;;;;;;;7.72;2.38;;;;;;;;;;5099682;28;20023;-72
2021/06/09 06:05:09;;;;;;;4.88;2.40;;;;;;;;;;5093999;28;20052;-72
2021/06/09 06:07:35;;;;;;;4.78;2.45;;;;;;;;;;5098466;28;20028;-72
2021/06/09 06:10:00;;;;;;;6.00;2.38;;;;;;;;;;5096185;28;20093;-72
2021/06/09 06:12:26;;;;;;;4.40;2.20;;;;;;;;;;5092019;28;20384;-74
2021/06/09 06:14:51;;;;;;;4.95;2.15;;;;;;;;;;5091949;28;20543;-75
2021/06/09 06:17:17;;;;;;;8.27;2.30;;;;;;;;;;5098930;28;20031;-76
2021/06/09 06:19:42;;;;;;;4.57;2.47;;;;;;;;;;5092023;28;20020;-75
2021/06/09 06:22:08;;;;;;;4.47;2.33;;;;;;;;;;5095112;28;20084;-75
2021/06/09 06:24:36;;;;;;;5.13;2.00;;;;;;;;;;5107063;28;20516;-76
2021/06/09 06:27:02;;;;;;;4.05;2.05;;;;;;;;;;5099214;28;20023;-77
2021/06/09 06:29:27;;;;;;;4.18;2.08;;;;;;;;;;5113793;28;20727;-75
2021/06/09 06:31:53;;;;;;;3.38;1.92;;;;;;;;;;5102086;28;20053;-76
2021/06/09 06:34:19;;;;;;;3.92;2.03;;;;;;;;;;5099673;28;20020;-75
2021/06/09 06:36:44;;;;;;;5.45;2.33;;;;;;;;;;5098585;28;20020;-74
2021/06/09 06:39:10;;;;;;;3.53;2.03;;;;;;;;;;5103266;28;20020;-74
2021/06/09 06:41:35;;;;;;;4.60;2.00;;;;;;;;;;5108140;28;20069;-74
2021/06/09 06:44:01;;;;;;;3.83;2.00;;;;;;;;;;5100582;28;20085;-75
2021/06/09 06:46:27;;;;;;;3.90;1.83;;;;;;;;;;5099311;28;20442;-76
2021/06/09 06:48:53;;;;;;;3.80;2.05;;;;;;;;;;5105892;28;20080;-74
2021/06/09 06:51:19;;;;;;;4.10;1.92;;;;;;;;;;5111028;28;20027;-74
2021/06/09 06:53:45;;;;;;;4.70;2.00;;;;;;;;;;5098941;28;20410;-73
2021/06/09 06:56:12;;;;;;;3.80;2.10;;;;;;;;;;5089603;28;20033;-74
2021/06/09 06:58:38;;;;;;;4.93;2.10;;;;;;;;;;5102132;28;20077;-74
2021/06/09 07:01:04;;;;;;;3.92;2.38;;;;;;;;;;5100511;28;20034;-75
2021/06/09 07:03:30;;;;;;;3.97;1.85;;;;;;;;;;5101640;28;20444;-75
2021/06/09 07:05:56;;;;;;;5.25;2.00;;;;;;;;;;5104898;28;20027;-73
2021/06/09 07:08:22;;;;;;;5.40;2.22;;;;;;;;;;5099458;28;20024;-74
2021/06/09 07:10:47;;;;;;;4.93;2.20;;;;;;;;;;5102740;28;20031;-73
2021/06/09 07:13:14;;;;;;;6.90;2.47;;;;;;;;;;5098374;28;20024;-74
2021/06/09 07:15:40;;;;;;;6.40;2.33;;;;;;;;;;5098738;28;20157;-75
2021/06/09 07:18:06;;;;;;;4.05;2.20;;;;;;;;;;5098320;28;20124;-75
2021/06/09 07:20:31;;;;;;;5.53;2.10;;;;;;;;;;5103002;28;20477;-77
2021/06/09 07:22:57;;;;;;;7.00;2.13;;;;;;;;;;5101554;28;20095;-79
2021/06/09 07:25:25;;;;;;;4.95;2.40;;;;;;;;;;5107347;28;20023;-78
2021/06/09 07:27:54;;;;;;;5.28;2.30;;;;;;;;;;5101313;28;20026;-78
2021/06/09 07:30:20;;;;;;;5.45;2.05;;;;;;;;;;5104464;28;20018;-79
2021/06/09 07:32:47;;;;;;;4.07;2.20;;;;;;;;;;5101065;28;20050;-79
2021/06/09 07:35:13;;;;;;;4.57;2.30;;;;;;;;;;5107568;28;20055;-79
2021/06/09 07:37:41;;;;;;;3.80;2.20;;;;;;;;;;5104184;28;20051;-76
2021/06/09 07:40:07;;;;;;;3.78;1.90;;;;;;;;;;5095001;28;20067;-77
2021/06/09 07:42:34;;;;;;;4.65;2.35;;;;;;;;;;5094751;28;20464;-74
2021/06/09 07:45:02;;;;;;;5.65;2.30;;;;;;;;;;5095559;28;20016;-77
2021/06/09 07:47:28;;;;;;;4.72;1.92;;;;;;;;;;5102460;28;20379;-72
2021/06/09 07:49:55;;;;;;;5.03;2.30;;;;;;;;;;5096506;28;20058;-75
2021/06/09 07:52:21;;;;;;;6.53;2.40;;;;;;;;;;5095311;28;20032;-73
2021/06/09 07:54:48;;;;;;;6.05;2.40;;;;;;;;;;5095289;28;20024;-70
2021/06/09 07:57:13;;;;;;;5.20;2.38;;;;;;;;;;5094891;28;20039;-70
2021/06/09 07:59:39;;;;;;;5.90;2.45;;;;;;;;;;5094290;28;20016;-69
2021/06/09 08:02:04;;;;;;;7.53;3.10;;;;;;;;;;5095423;28;20020;-69
2021/06/09 08:04:30;;;;;;;5.38;2.75;;;;;;;;;;5094481;28;20461;-69
2021/06/09 08:06:56;;;;;;;4.93;2.53;;;;;;;;;;5101267;28;20023;-69
2021/06/09 08:09:21;;;;;;;5.20;2.75;;;;;;;;;;5093822;28;20067;-73
2021/06/09 08:11:47;;;;;;;5.00;2.80;;;;;;;;;;5094335;28;20117;-75
2021/06/09 08:14:15;;;;;;;6.90;2.40;;;;;;;;;;5094919;28;20020;-74
2021/06/09 08:16:40;;;;;;;4.93;2.50;;;;;;;;;;5098147;28;20280;-73
2021/06/09 08:19:06;;;;;;;5.32;2.60;;;;;;;;;;5094142;28;20038;-73
2021/06/09 08:21:32;;;;;;;5.93;2.58;;;;;;;;;;5096907;28;20008;-76
2021/06/09 08:23:57;;;;;;;7.40;2.80;;;;;;;;;;5094711;28;20016;-77
2021/06/09 08:26:24;;;;;;;6.93;2.85;;;;;;;;;;5093974;28;20494;-77
2021/06/09 08:28:49;;;;;;;4.15;2.40;;;;;;;;;;5094772;28;20012;-78
2021/06/09 08:31:18;;;;;;;4.90;2.42;;;;;;;;;;5093674;28;20115;-76
2021/06/09 08:33:43;;;;;;;4.97;2.53;;;;;;;;;;5096816;28;20027;-75
2021/06/09 08:36:11;;;;;;;6.22;2.53;;;;;;;;;;5094281;28;20103;-74
2021/06/09 08:38:37;;;;;;;4.80;2.50;;;;;;;;;;5105114;28;20402;-76
2021/06/09 08:41:03;;;;;;;4.22;2.33;;;;;;;;;;5093355;28;20020;-75
2021/06/09 08:43:28;;;;;;;4.93;2.25;;;;;;;;;;5080524;28;20016;-74
2021/06/09 08:45:54;;;;;;;4.13;2.15;;;;;;;;;;5093823;28;20050;-77
2021/06/09 08:48:19;;;;;;;4.00;2.17;;;;;;;;;;5093979;28;20058;-76
2021/06/09 08:50:48;;;;;;;4.75;2.13;;;;;;;;;;5093752;28;20050;-74
2021/06/09 08:53:16;;;;;;;4.70;2.30;;;;;;;;;;5093769;28;20024;-75
2021/06/09 08:55:42;;;;;;;4.43;2.30;;;;;;;;;;5093792;28;20043;-74
2021/06/09 08:58:11;;;;;;;4.18;2.40;;;;;;;;;;5093371;28;20050;-73
2021/06/09 09:00:38;;;;;;;3.80;2.05;;;;;;;;;;5093499;28;20023;-75
2021/06/09 09:03:04;;;;;;;6.07;2.17;;;;;;;;;;5093759;28;20024;-77
2021/06/09 09:05:30;;;;;;;3.63;2.13;;;;;;;;;;5090826;28;20036;-71
2021/06/09 09:07:58;;;;;;;5.20;2.00;;;;;;;;;;5088808;28;20032;-70
2021/06/09 09:10:26;;;;;;;6.63;2.20;;;;;;;;;;5089905;28;20145;-71
2021/06/09 09:12:52;;;;;;;4.13;2.42;;;;;;;;;;5089312;28;20020;-72
2021/06/09 09:15:18;;;;;;;5.00;1.88;;;;;;;;;;5090696;28;20529;-70
2021/06/09 09:17:51;;;;;;;5.70;2.33;;;;;;;;;;5090655;28;20024;-71
2021/06/09 09:20:20;;;;;;;5.43;2.58;;;;;;;;;;5097857;28;20036;-70
2021/06/09 09:22:45;;;;;;;4.35;2.45;;;;;;;;;;5095332;28;20384;-69
2021/06/09 09:25:12;;;;;;;4.07;2.42;;;;;;;;;;5101104;28;20030;-68
2021/06/09 09:27:38;;;;;;;4.35;2.55;;;;;;;;;;5095937;28;20024;-69
2021/06/09 09:30:05;;;;;;;4.65;2.40;;;;;;;;;;5089906;28;20031;-68
2021/06/09 09:32:36;;;;;;;4.85;2.38;;;;;;;;;;5088133;28;20039;-71
2021/06/09 09:35:09;;;;;;;4.70;2.40;;;;;;;;;;5093775;28;20081;-72
2021/06/09 09:37:35;;;;;;;4.35;2.30;;;;;;;;;;5092379;28;20799;-74
2021/06/09 09:40:18;;;;;;;5.10;2.33;;;;;;;;;;5097640;28;20063;-71
2021/06/09 09:42:44;;;;;;;6.07;2.85;;;;;;;;;;5091566;28;20069;-69
2021/06/09 09:45:23;;;;;;;4.55;2.75;;;;;;;;;;5089941;28;20020;-68
2021/06/09 09:48:08;;;;;;;5.88;2.58;;;;;;;;;;5093443;28;20123;-68
2021/06/09 09:50:35;;;;;;;4.80;2.55;;;;;;;;;;5089767;28;20357;-70
2021/06/09 09:53:17;;;;;;;5.82;2.30;;;;;;;;;;5100635;28;20105;-71
2021/06/09 09:56:01;;;;;;;3.30;1.80;;;;;;;;;;5094600;28;20062;-69
2021/06/09 09:58:28;;;;;;;8.45;2.10;;;;;;;;;;5100357;28;20678;-69
2021/06/09 10:01:16;;;;;;;3.90;2.10;;;;;;;;;;5093322;28;20372;-70
2021/06/09 10:03:42;;;;;;;3.75;1.92;;;;;;;;;;5083463;28;20362;-72
2021/06/09 10:06:21;;;;;;;7.35;2.90;;;;;;;;;;5082811;28;20028;-69
2021/06/09 10:08:47;;;;;;;3.90;1.90;;;;;;;;;;5080949;28;20053;-68
2021/06/09 10:11:13;;;;;;;4.20;2.00;;;;;;;;;;5089403;28;20040;-69
2021/06/09 10:13:39;;;;;;;4.78;2.20;;;;;;;;;;5095560;28;20032;-68
2021/06/09 10:16:20;;;;;;;4.18;1.90;;;;;;;;;;5088448;28;20032;-68
2021/06/09 10:18:45;;;;;;;;;;;;;;;;;;5092672;28;20066;-69
2021/06/09 10:21:13;;;;;;;3.27;1.43;;;;;;;;;;5091540;28;19943;-71
2021/06/09 10:23:38;;;;;;;5.53;2.38;;;;;;;;;;5097591;28;20024;-70
2021/06/09 10:26:11;;;;;;;3.42;1.65;;;;;;;;;;5091147;28;20044;-69
2021/06/09 10:28:56;;;;;;;3.35;1.60;;;;;;;;;;5097546;28;20107;-70
2021/06/09 10:31:22;;;;;;;4.70;1.40;;;;;;;;;;5098062;28;20032;-70
2021/06/09 10:33:48;;;;;;;3.10;1.30;;;;;;;;;;5095410;28;20365;-69
2021/06/09 10:36:14;;;;;;;3.45;1.35;;;;;;;;;;5089154;28;20063;-70
2021/06/09 10:38:40;;;;;;;4.70;1.63;;;;;;;;;;5089391;28;20064;-70
2021/06/09 10:41:06;;;;;;;3.22;1.33;;;;;;;;;;5102326;28;20055;-70
2021/06/09 10:43:32;;;;;;;6.00;1.90;;;;;;;;;;5092035;28;20073;-68
2021/06/09 10:45:58;;;;;;;3.25;1.55;;;;;;;;;;5095327;28;20028;-68
2021/06/09 10:48:24;;;;;;;2.65;1.30;;;;;;;;;;5094107;28;20029;-68
2021/06/09 10:50:52;;;;;;;3.58;1.60;;;;;;;;;;5092406;28;20060;-68
2021/06/09 10:53:18;;;;;;;4.85;1.60;;;;;;;;;;5088769;28;20043;-68
2021/06/09 10:55:44;;;;;;;3.30;1.60;;;;;;;;;;5088202;28;20562;-67
2021/06/09 10:58:10;;;;;;;4.75;1.70;;;;;;;;;;5093197;28;20016;-68
2021/06/09 11:00:35;;;;;;;3.80;1.85;;;;;;;;;;5092836;28;20077;-68
2021/06/09 11:03:00;;;;;;;2.90;1.50;;;;;;;;;;5097304;28;20055;-68
2021/06/09 11:05:26;;;;;;;3.63;1.70;;;;;;;;;;5080708;28;20132;-67
2021/06/09 11:07:53;;;;;;;6.00;2.50;;;;;;;;;;5085014;28;20028;-67
2021/06/09 11:10:38;;;;;;;5.25;2.35;;;;;;;;;;5090008;28;20028;-67
2021/06/09 11:13:06;;;;;;;5.82;2.20;;;;;;;;;;5092275;28;20036;-68
2021/06/09 11:15:33;;;;;;;4.07;2.10;;;;;;;;;;5096794;28;20067;-67
2021/06/09 11:18:00;;;;;;;5.13;2.28;;;;;;;;;;5093069;28;20122;-67
2021/06/09 11:20:38;;;;;;;4.28;2.35;;;;;;;;;;5092592;28;20036;-67
2021/06/09 11:23:09;;;;;;;4.10;2.30;;;;;;;;;;5095820;28;20463;-67
2021/06/09 11:25:39;;;;;;;4.25;2.20;;;;;;;;;;5091178;28;20047;-68
2021/06/09 11:28:08;;;;;;;4.28;2.10;;;;;;;;;;5093533;28;20028;-68
2021/06/09 11:30:53;;;;;;;3.30;1.77;;;;;;;;;;5092765;28;20115;-68
2021/06/09 11:33:41;;;;;;;5.13;1.70;;;;;;;;;;5081253;28;20047;-69
2021/06/09 11:36:08;;;;;;;3.05;1.65;;;;;;;;;;5098052;28;20053;-68
2021/06/09 11:38:41;;;;;;;5.05;1.80;;;;;;;;;;5091856;28;20210;-67
2021/06/09 11:41:12;;;;;;;5.78;1.77;;;;;;;;;;5095364;28;20635;-67
2021/06/09 11:43:40;;;;;;;3.20;1.92;;;;;;;;;;5095551;28;20023;-68
2021/06/09 11:46:07;;;;;;;3.83;2.10;;;;;;;;;;5092668;28;20082;-68
2021/06/09 11:48:33;;;;;;;2.90;1.50;;;;;;;;;;5090577;28;20027;-68
2021/06/09 11:51:19;;;;;;;3.72;1.75;;;;;;;;;;5093178;28;20015;-67
2021/06/09 11:53:45;;;;;;;3.90;1.73;;;;;;;;;;5091693;28;20035;-67
2021/06/09 11:56:18;;;;;;;3.60;1.80;;;;;;;;;;5090072;28;20054;-67
2021/06/09 11:58:45;;;;;;;4.93;2.00;;;;;;;;;;5083939;28;20027;-67
2021/06/09 12:01:11;;;;;;;2.97;1.67;;;;;;;;;;5095424;28;20024;-67
2021/06/09 12:03:37;;;;;;;4.45;2.15;;;;;;;;;;5092583;28;20476;-67
2021/06/09 12:06:19;;;;;;;4.13;2.03;;;;;;;;;;5098419;28;20020;-67
2021/06/09 12:08:45;;;;;;;3.83;2.03;;;;;;;;;;5092340;28;20016;-67
2021/06/09 12:11:11;;;;;;;3.72;2.10;;;;;;;;;;5094136;28;20181;-67
2021/06/09 12:13:36;;;;;;;6.47;2.15;;;;;;;;;;5104524;28;20450;-67
2021/06/09 12:16:21;;;;;;;5.00;2.10;;;;;;;;;;5096692;28;20037;-67
2021/06/09 12:18:48;;;;;;;4.07;1.67;;;;;;;;;;5087186;28;20380;-67
2021/06/09 12:21:14;;;;;;;3.95;2.00;;;;;;;;;;5095209;28;20051;-67
2021/06/09 12:23:50;;;;;;;5.18;2.15;;;;;;;;;;5086271;28;20024;-67
2021/06/09 12:26:15;;;;;;;3.28;1.90;;;;;;;;;;5100642;28;21266;-67
2021/06/09 12:28:40;;;;;;;4.75;1.85;;;;;;;;;;5090771;28;20031;-67
2021/06/09 12:31:11;;;;;;;3.78;2.00;;;;;;;;;;5089739;28;20080;-67
2021/06/09 12:33:37;;;;;;;4.10;2.13;;;;;;;;;;5090718;28;20028;-67
2021/06/09 12:36:06;;;;;;;4.50;1.70;;;;;;;;;;5100382;28;20036;-67
2021/06/09 12:38:31;;;;;;;4.95;1.80;;;;;;;;;;5082020;28;20036;-67
2021/06/09 12:40:56;;;;;;;4.05;2.42;;;;;;;;;;5092607;28;20023;-67
2021/06/09 12:43:24;;;;;;;2.83;1.67;;;;;;;;;;5098260;28;20483;-67
2021/06/09 12:45:49;;;;;;;2.97;1.83;;;;;;;;;;5093824;28;20050;-67
2021/06/09 12:48:18;;;;;;;3.75;1.83;;;;;;;;;;5093828;28;20051;-67
2021/06/09 12:50:45;;;;;;;3.28;1.80;;;;;;;;;;5099196;28;20020;-67
2021/06/09 12:53:21;;;;;;;4.22;2.05;;;;;;;;;;5093799;28;20531;-67
2021/06/09 12:56:07;;;;;;;3.28;1.70;;;;;;;;;;5098747;28;20107;-67
2021/06/09 12:58:33;;;;;;;4.72;1.95;;;;;;;;;;5089483;28;20100;-67
2021/06/09 13:01:03;;;;;;;4.25;1.90;;;;;;;;;;5092308;28;20102;-67
2021/06/09 13:03:42;;;;;;;3.90;1.98;;;;;;;;;;5101875;28;20364;-67
2021/06/09 13:06:14;;;;;;;3.67;1.98;;;;;;;;;;5093994;28;20024;-67
2021/06/09 13:08:43;;;;;;;4.75;1.83;;;;;;;;;;5090458;28;20048;-67
2021/06/09 13:11:13;;;;;;;3.75;2.00;;;;;;;;;;5093947;28;20388;-67
2021/06/09 13:13:41;;;;;;;4.35;1.92;;;;;;;;;;5090929;28;20040;-67
2021/06/09 13:16:06;;;;;;;3.85;2.17;;;;;;;;;;5090410;28;20471;-68
2021/06/09 13:18:32;;;;;;;4.00;2.28;;;;;;;;;;5094853;28;20028;-67
2021/06/09 13:21:08;;;;;;;3.47;2.20;;;;;;;;;;5098076;28;20039;-67
2021/06/09 13:23:33;;;;;;;3.58;2.13;;;;;;;;;;5100599;28;20079;-67
2021/06/09 13:26:04;;;;;;;5.35;2.30;;;;;;;;;;5100464;28;20115;-67
2021/06/09 13:28:32;;;;;;;5.25;2.50;;;;;;;;;;5090247;28;20459;-67
2021/06/09 13:30:57;;;;;;;4.00;2.40;;;;;;;;;;5089616;28;20586;-66
2021/06/09 13:33:23;;;;;;;4.55;2.60;;;;;;;;;;5096880;28;20027;-66
2021/06/09 13:35:48;;;;;;;4.28;2.35;;;;;;;;;;5093906;28;20035;-66
2021/06/09 13:38:13;;;;;;;4.68;2.30;;;;;;;;;;5091291;28;20030;-66
2021/06/09 13:40:39;;;;;;;4.00;2.40;;;;;;;;;;5090996;28;20020;-66
2021/06/09 13:43:07;;;;;;;3.83;2.20;;;;;;;;;;5093949;28;20020;-66
2021/06/09 13:45:36;;;;;;;3.88;2.15;;;;;;;;;;5090308;28;20029;-66
2021/06/09 13:48:06;;;;;;;6.90;2.00;;;;;;;;;;5094729;28;20027;-66
2021/06/09 13:50:31;;;;;;;3.72;2.10;;;;;;;;;;5092692;28;20024;-67
2021/06/09 13:53:04;;;;;;;4.45;2.30;;;;;;;;;;5091626;28;20456;-67
2021/06/09 13:55:36;;;;;;;3.78;2.10;;;;;;;;;;5092090;28;20039;-67
2021/06/09 13:58:02;;;;;;;4.05;2.35;;;;;;;;;;5094346;28;20044;-67
2021/06/09 14:00:29;;;;;;;3.90;2.00;;;;;;;;;;5087786;28;20719;-67
2021/06/09 14:02:54;;;;;;;4.40;2.22;;;;;;;;;;5089552;28;20024;-67
2021/06/09 14:05:23;;;;;;;5.65;2.22;;;;;;;;;;5092210;28;20058;-66
2021/06/09 14:07:57;;;;;;;8.55;2.88;;;;;;;;;;5089351;28;20047;-66
2021/06/09 14:10:40;;;;;;;4.32;2.40;;;;;;;;;;5101603;28;20027;-66
2021/06/09 14:13:38;;;;;;;3.92;2.40;;;;;;;;;;5090194;28;20020;-66
2021/06/09 14:16:06;;;;;;;4.50;2.50;;;;;;;;;;5033438;28;20043;-66
2021/06/09 14:18:40;;;;;;;3.88;2.28;;;;;;;;;;5096516;28;20066;-67
2021/06/09 14:21:08;;;;;;;3.75;2.28;;;;;;;;;;5092130;28;20024;-66
2021/06/09 14:23:35;;;;;;;4.93;2.20;;;;;;;;;;5092400;28;20365;-67
2021/06/09 14:26:03;;;;;;;4.80;2.70;;;;;;;;;;5093429;28;20107;-67
2021/06/09 14:28:35;;;;;;;7.38;2.35;;;;;;;;;;5099699;28;20106;-67
2021/06/09 14:31:16;;;;;;;7.90;2.70;;;;;;;;;;5089077;28;20368;-67
2021/06/09 14:33:53;;;;;;;5.10;2.78;;;;;;;;;;5090923;28;20038;-66
2021/06/09 14:39:15;;;;;;;4.32;2.10;;;;;;;;;;5088991;28;20054;-67
2021/06/09 14:41:46;;;;;;;8.60;2.70;;;;;;;;;;5098121;28;20069;-67
2021/06/09 14:47:41;;;;;;;4.45;2.30;;;;;;;;;;5084989;28;20032;-67
2021/06/09 14:50:06;;;;;;;8.90;4.20;;;;;;;;;;5088309;28;20066;-67
2021/06/09 14:52:38;;;;;;;5.15;2.40;;;;;;;;;;5091640;28;20352;-67
2021/06/09 14:55:13;;;;;;;3.78;2.30;;;;;;;;;;5093870;28;20032;-66
2021/06/09 14:57:40;;;;;;;3.60;2.03;;;;;;;;;;5100284;28;20056;-67
2021/06/09 15:00:11;;;;;;;4.82;2.63;;;;;;;;;;5102948;28;20032;-66